Offutt Air Force Base Omaha US
ICAO: KOFF
IATA: OFF
Category: Medium
Scheduled Services: No

Elevation: 1052 ft
TransAlt. 18000 ft.

Airport Communications:
OMAHA APP/DEP:118
ATIS:126.025
GND:121.7
PMSV METRO:22.74
COMD POST:31.1
PTD:37.94
TWR:123.7

KOFF Zoom In..

Runways:

(A) RW 12 length 11702 ft width 150 ft
ILS 111.70 / hdg 124

(B) RW 30 length 11702 ft width 150 ft
ILS 109.50 / hdg 304

Location; KOFF
Day. 20 / Time. 19.56 Zulu
* Altimeter: 29.93
* Temperature: 28° c. 82.4°f.
* Wind from: 010° Speed 06 kn.
Dewpoint: 18° c.
Visibility: 10 Statute Miles.
Clouds: Few 2000 ft.

KOFF 201956Z AUTO 01006KT 10SM FEW200 28/18 A2993 RMK AO2 SLP132 T02810176 $


Wind From 010°
Speed 06 kn.

 
 
jpsmedia.com for Web Design worldairports.se 2018   terms of use